Time;durP1;ratioP1;P1;durP2;ratioP2;P2;SDS_P1;SDS_P2;PMS_P1;PMS_P2;Temp;Humidity;BMP_temperature;BMP_pressure;BME280_temperature;BME280_humidity;BME280_pressure;Samples;Min_cycle;Max_cycle;Signal;HPM_P1;HPM_P2
2023/01/20 00:00:10;;;;;;;17.60;8.90;;;;;;;6.79;97.47;98113.12;110031;1278;22199;-77
2023/01/20 00:03:01;;;;;;;22.40;10.50;;;;;;;6.82;97.08;98109.41;110238;1272;22164;-77
2023/01/20 00:05:32;;;;;;;21.80;11.00;;;;;;;6.81;96.98;98107.91;107848;1273;24304;-77
2023/01/20 00:08:03;;;;;;;18.40;9.80;;;;;;;6.81;97.00;98108.42;107237;1277;24448;-77
2023/01/20 00:10:32;;;;;;;22.20;11.70;;;;;;;6.84;97.29;98116.07;107287;1277;22639;-77
2023/01/20 00:13:08;;;;;;;21.60;11.30;;;;;;;6.87;97.33;98122.72;107339;1277;26519;-78
2023/01/20 00:15:36;;;;;;;23.00;11.60;;;;;;;6.85;96.54;98125.52;107320;1277;23935;-76
2023/01/20 00:18:08;;;;;;;17.20;9.80;;;;;;;6.80;96.44;98132.02;107334;1277;22550;-77
2023/01/20 00:20:36;;;;;;;23.20;12.70;;;;;;;6.75;96.08;98130.43;107323;1276;25351;-77
2023/01/20 00:23:07;;;;;;;20.50;10.60;;;;;;;6.70;96.73;98134.33;107321;1277;23214;-77
2023/01/20 00:25:46;;;;;;;26.20;11.90;;;;;;;6.65;95.55;98125.51;107226;1277;27414;-77
2023/01/20 00:28:18;;;;;;;21.50;11.20;;;;;;;6.57;95.37;98121.23;107336;1277;25251;-76
2023/01/20 00:30:49;;;;;;;25.40;12.70;;;;;;;6.51;96.40;98125.84;107303;1278;22560;-77
2023/01/20 00:33:23;;;;;;;22.70;10.90;;;;;;;6.47;96.82;98126.29;107243;1277;25507;-76
2023/01/20 00:35:52;;;;;;;21.00;11.10;;;;;;;6.45;97.09;98116.54;107231;1277;24240;-77
2023/01/20 00:38:23;;;;;;;26.60;11.50;;;;;;;6.40;95.81;98108.38;107258;1265;22677;-77
2023/01/20 00:40:58;;;;;;;22.10;11.20;;;;;;;6.35;96.78;98105.05;107218;1278;23746;-77
2023/01/20 00:43:29;;;;;;;18.80;9.70;;;;;;;6.33;97.44;98101.66;107198;1276;22566;-77
2023/01/20 00:45:58;;;;;;;22.10;11.60;;;;;;;6.31;97.14;98099.80;107201;1277;22911;-78
2023/01/20 00:48:32;;;;;;;23.90;12.60;;;;;;;6.28;96.21;98096.45;107220;1277;25406;-76
2023/01/20 00:51:05;;;;;;;21.80;11.30;;;;;;;6.27;96.96;98090.30;107225;1277;22523;-76
2023/01/20 00:53:36;;;;;;;24.90;11.70;;;;;;;6.29;96.52;98080.79;107193;1277;22522;-76
2023/01/20 00:56:06;;;;;;;22.40;11.60;;;;;;;6.27;96.10;98074.81;107087;1275;22534;-76
2023/01/20 00:58:41;;;;;;;22.10;12.60;;;;;;;6.26;96.64;98067.77;107248;1277;24359;-77
2023/01/20 01:01:14;;;;;;;28.70;12.90;;;;;;;6.26;96.66;98062.77;107258;1270;22534;-77
2023/01/20 01:03:47;;;;;;;26.30;13.80;;;;;;;6.25;97.11;98061.94;107284;1263;22522;-76
2023/01/20 01:06:16;;;;;;;28.10;12.90;;;;;;;6.27;97.60;98063.80;107291;1274;22532;-76
2023/01/20 01:08:46;;;;;;;33.50;13.00;;;;;;;6.29;97.53;98068.55;110264;1272;22342;-77
2023/01/20 01:11:14;;;;;;;31.00;15.30;;;;;;;6.29;97.54;98074.75;110303;1277;22356;-77
2023/01/20 01:13:48;;;;;;;25.70;12.80;;;;;;;6.29;97.77;98078.02;109571;1277;22625;-76
2023/01/20 01:16:16;;;;;;;24.20;12.60;;;;;;;6.31;97.56;98079.00;107330;1266;22547;-76
2023/01/20 01:18:50;;;;;;;28.00;13.30;;;;;;;6.31;97.94;98072.13;107364;1277;23898;-78
2023/01/20 01:21:28;;;;;;;28.10;13.30;;;;;;;6.35;97.55;98064.10;107288;1277;25281;-76
2023/01/20 01:23:56;;;;;;;26.70;13.50;;;;;;;6.34;97.79;98059.66;107317;1277;22540;-76
2023/01/20 01:26:25;;;;;;;28.10;13.40;;;;;;;6.36;98.29;98048.58;107328;1264;22788;-76
2023/01/20 01:29:06;;;;;;;26.10;12.80;;;;;;;6.39;98.39;98045.25;107323;1277;22524;-76
2023/01/20 01:31:40;;;;;;;26.20;13.00;;;;;;;6.42;98.32;98045.19;107332;1266;24176;-76
2023/01/20 01:34:10;;;;;;;25.60;13.50;;;;;;;6.44;98.13;98051.31;107365;1273;24408;-79
2023/01/20 01:36:41;;;;;;;;;;;;;;;6.47;98.16;98053.48;107416;1277;23712;-77
2023/01/20 01:39:12;;;;;;;31.10;16.50;;;;;;;6.47;98.32;98060.71;107324;1270;22519;-76
2023/01/20 01:41:47;;;;;;;33.50;16.50;;;;;;;6.46;97.99;98070.70;107696;1277;23009;-77
2023/01/20 01:44:21;;;;;;;37.30;17.70;;;;;;;6.46;98.31;98078.64;107718;1275;22749;-77
2023/01/20 01:46:58;;;;;;;29.50;15.40;;;;;;;6.49;98.74;98084.73;107296;1277;24130;-76
2023/01/20 01:49:34;;;;;;;35.50;16.60;;;;;;;6.52;98.80;98093.12;107329;1277;22723;-77
2023/01/20 01:52:07;;;;;;;34.10;15.30;;;;;;;6.52;98.39;98092.58;107289;1277;22516;-76
2023/01/20 01:54:42;;;;;;;32.40;15.40;;;;;;;6.48;97.52;98098.02;107303;1277;25648;-76
2023/01/20 01:57:11;;;;;;;30.10;15.60;;;;;;;6.47;98.15;98098.21;110296;1277;22187;-78
2023/01/20 01:59:45;;;;;;;34.10;16.60;;;;;;;6.45;98.20;98100.86;110312;1277;22152;-76
2023/01/20 02:02:17;;;;;;;27.30;15.40;;;;;;;6.42;97.53;98102.15;110270;1277;22356;-77
2023/01/20 02:04:57;;;;;;;39.10;16.70;;;;;;;6.37;97.48;98095.38;110304;1275;22194;-77
2023/01/20 02:07:31;;;;;;;31.00;15.70;;;;;;;6.34;97.77;98085.64;110160;1278;22226;-77
2023/01/20 02:10:05;;;;;;;30.90;15.30;;;;;;;6.34;98.04;98074.28;110286;1277;22210;-76
2023/01/20 02:12:34;;;;;;;26.60;13.30;;;;;;;6.32;98.16;98066.23;110293;1277;22231;-77
2023/01/20 02:15:03;;;;;;;30.10;12.80;;;;;;;6.32;98.45;98062.80;110046;1277;22966;-76
2023/01/20 02:17:55;;;;;;;27.50;13.60;;;;;;;6.32;98.56;98059.52;110311;1263;22178;-76
2023/01/20 02:20:51;;;;;;;27.20;13.80;;;;;;;6.33;99.26;98057.60;110298;1277;23351;-77
2023/01/20 02:24:18;;;;;;;;;;;;;;;;;;;;;
2023/01/20 02:27:26;;;;;;;24.40;12.60;;;;;;;6.39;98.68;98059.17;110327;1277;22377;-76
2023/01/20 02:30:21;;;;;;;21.00;11.20;;;;;;;6.41;98.13;98055.20;110324;1277;23036;-77
2023/01/20 02:33:03;;;;;;;26.60;12.90;;;;;;;6.42;98.40;98049.64;110304;1277;22274;-77
2023/01/20 02:35:56;;;;;;;28.50;12.80;;;;;;;6.46;98.68;98049.38;110275;1277;22337;-76
2023/01/20 02:38:43;;;;;;;28.90;13.80;;;;;;;6.51;98.72;98049.23;109975;1277;22566;-76
2023/01/20 02:41:23;;;;;;;26.60;12.80;;;;;;;6.55;98.55;98051.38;107291;1270;24238;-76
2023/01/20 02:44:18;;;;;;;21.80;12.10;;;;;;;6.58;98.52;98060.95;107283;1272;22635;-76
2023/01/20 02:47:06;;;;;;;32.90;17.50;;;;;;;6.63;98.98;98052.90;107307;1277;25284;-77
2023/01/20 02:49:48;;;;;;;26.10;13.60;;;;;;;6.69;99.18;98051.03;110267;1277;23011;-77
2023/01/20 02:52:24;;;;;;;26.00;12.10;;;;;;;6.73;99.13;98042.65;110331;1277;22209;-77
2023/01/20 02:55:02;;;;;;;23.50;11.30;;;;;;;6.74;98.71;98031.60;110274;1263;22160;-77
2023/01/20 02:57:48;;;;;;;19.70;11.10;;;;;;;6.73;98.95;98030.23;110264;1277;22963;-76
2023/01/20 03:00:27;;;;;;;20.10;11.20;;;;;;;6.79;99.09;98032.52;110151;1277;22291;-77
2023/01/20 03:02:58;;;;;;;20.70;12.30;;;;;;;6.82;98.73;98032.41;110279;1272;22222;-77
2023/01/20 03:05:32;;;;;;;21.80;12.90;;;;;;;6.82;98.58;98024.34;108627;1275;24220;-77
2023/01/20 03:08:07;;;;;;;22.20;12.00;;;;;;;6.81;98.43;98025.76;107390;1270;23505;-77
2023/01/20 03:10:42;;;;;;;22.50;12.20;;;;;;;6.75;98.28;98016.75;107315;1277;22535;-76
2023/01/20 03:13:31;;;;;;;22.20;11.70;;;;;;;6.71;98.26;98010.66;110342;1270;22232;-77
2023/01/20 03:16:09;;;;;;;24.30;12.60;;;;;;;6.64;97.88;98006.20;109678;1273;23902;-82
2023/01/20 03:18:39;;;;;;;20.90;11.60;;;;;;;6.59;97.93;98011.00;109251;1278;24804;-77
2023/01/20 03:21:14;;;;;;;24.30;12.40;;;;;;;6.53;97.92;98000.98;107567;1277;22622;-76
2023/01/20 03:23:48;;;;;;;19.40;11.50;;;;;;;6.50;98.47;97986.77;107319;1278;22627;-76
2023/01/20 03:26:19;;;;;;;28.00;11.40;;;;;;;6.48;98.48;97987.36;110271;1277;23029;-77
2023/01/20 03:28:50;;;;;;;23.30;11.10;;;;;;;6.45;99.27;97994.48;110257;1277;22305;-77
2023/01/20 03:31:29;;;;;;;19.90;10.40;;;;;;;6.45;98.44;97995.38;110264;1277;22222;-77
2023/01/20 03:34:04;;;;;;;20.80;11.30;;;;;;;6.40;98.72;97982.92;110320;1277;22362;-77
2023/01/20 03:36:33;;;;;;;21.40;10.60;;;;;;;6.38;99.03;97974.02;110328;1277;22343;-77
2023/01/20 03:39:07;;;;;;;19.80;10.90;;;;;;;6.35;98.31;97967.04;110308;1277;22228;-77
2023/01/20 03:41:54;;;;;;;23.80;11.60;;;;;;;6.33;98.15;97958.14;110272;1277;22232;-77
2023/01/20 03:44:44;;;;;;;19.90;10.30;;;;;;;6.31;98.94;97959.23;110328;1277;22214;-78
2023/01/20 03:47:33;;;;;;;20.10;10.60;;;;;;;6.34;98.76;97948.98;110288;1277;23051;-77
2023/01/20 03:50:16;;;;;;;16.90;10.30;;;;;;;6.36;99.21;97952.73;110268;1277;22201;-77
2023/01/20 03:53:00;;;;;;;23.90;11.60;;;;;;;6.37;99.17;97955.45;110298;1277;22213;-77
2023/01/20 03:55:48;;;;;;;20.90;11.20;;;;;;;6.43;99.43;97961.34;110317;1277;22234;-77
2023/01/20 03:58:22;;;;;;;25.80;12.80;;;;;;;6.48;99.59;97971.02;110134;1273;22300;-77
2023/01/20 04:00:50;;;;;;;;;;;;;;;6.52;99.52;97974.34;110244;1277;23516;-77
2023/01/20 04:03:28;;;;;;;25.40;12.20;;;;;;;6.55;99.69;97983.02;110337;1277;23052;-77
2023/01/20 04:06:00;;;;;;;22.10;10.90;;;;;;;6.61;99.75;97983.40;110271;1278;23458;-77
2023/01/20 04:08:33;;;;;;;22.90;10.50;;;;;;;6.69;99.66;97980.44;110304;1270;22355;-77
2023/01/20 04:11:06;;;;;;;20.40;9.30;;;;;;;6.71;99.38;97976.41;110348;1263;22178;-78
2023/01/20 04:13:35;;;;;;;30.00;13.20;;;;;;;6.68;99.27;97972.36;110139;1277;22310;-77
2023/01/20 04:16:11;;;;;;;21.10;11.50;;;;;;;6.63;99.10;97971.64;110139;1277;22288;-77
2023/01/20 04:18:41;;;;;;;23.60;12.50;;;;;;;6.63;99.15;97970.42;110333;1269;22308;-77
2023/01/20 04:21:15;;;;;;;26.60;12.40;;;;;;;6.58;98.89;97966.42;110287;1278;22204;-77
2023/01/20 04:24:00;;;;;;;20.90;10.60;;;;;;;6.54;98.83;97962.23;110337;1277;22165;-77
2023/01/20 04:26:28;;;;;;;21.70;10.70;;;;;;;6.46;98.87;97960.73;110278;1263;22224;-77
2023/01/20 04:29:06;;;;;;;16.90;9.20;;;;;;;6.39;99.31;97953.49;110395;1277;22195;-77
2023/01/20 04:31:39;;;;;;;21.90;10.20;;;;;;;6.36;99.18;97945.83;110227;1278;22192;-77
2023/01/20 04:34:11;;;;;;;20.00;10.30;;;;;;;6.31;98.33;97937.03;110093;1275;22358;-77
2023/01/20 04:36:43;;;;;;;19.10;10.40;;;;;;;6.25;98.52;97956.27;107565;1277;22527;-80
2023/01/20 04:39:14;;;;;;;18.10;10.50;;;;;;;6.19;98.20;97957.63;107368;1277;25297;-77
2023/01/20 04:41:47;;;;;;;25.50;11.30;;;;;;;6.13;99.35;97950.57;107247;1277;25322;-77
2023/01/20 04:44:15;;;;;;;17.40;9.40;;;;;;;6.10;99.30;97947.39;108264;1270;24612;-77
2023/01/20 04:46:47;;;;;;;17.70;8.90;;;;;;;6.04;99.67;97941.14;107122;1269;22520;-76
2023/01/20 04:49:16;;;;;;;16.40;8.80;;;;;;;6.02;99.88;97951.02;107264;1272;23800;-81
2023/01/20 04:51:46;;;;;;;18.70;9.20;;;;;;;6.01;99.63;97951.04;107238;1278;22527;-77
2023/01/20 04:54:18;;;;;;;16.70;8.40;;;;;;;5.99;99.15;97950.40;107279;1278;25259;-76
2023/01/20 04:56:49;;;;;;;21.80;9.40;;;;;;;6.01;99.22;97946.76;107373;1277;23927;-77
2023/01/20 04:59:18;;;;;;;14.00;7.40;;;;;;;5.98;99.83;97946.30;107342;1277;25214;-77
2023/01/20 05:01:46;;;;;;;12.30;7.30;;;;;;;5.98;100.00;97946.64;107298;1266;25481;-78
2023/01/20 05:04:15;;;;;;;15.80;7.30;;;;;;;5.99;100.00;97948.51;107289;1278;22567;-77
2023/01/20 05:06:43;;;;;;;13.60;6.80;;;;;;;6.04;99.99;97939.45;107311;1277;25274;-77
2023/01/20 05:09:16;;;;;;;17.10;7.50;;;;;;;6.06;100.00;97932.35;107283;1278;23276;-77
2023/01/20 05:11:49;;;;;;;15.50;8.10;;;;;;;6.08;100.00;97929.36;107303;1277;22540;-77
2023/01/20 05:14:17;;;;;;;15.10;7.50;;;;;;;6.11;100.00;97921.90;107275;1277;25332;-77
2023/01/20 05:16:48;;;;;;;12.30;6.50;;;;;;;6.12;100.00;97929.75;107299;1277;23429;-76
2023/01/20 05:19:16;;;;;;;16.50;8.00;;;;;;;6.15;100.00;97929.00;107317;1277;23294;-77
2023/01/20 05:21:45;;;;;;;14.50;6.60;;;;;;;6.19;100.00;97929.94;107282;1266;24385;-77
2023/01/20 05:24:18;;;;;;;13.00;6.90;;;;;;;6.20;100.00;97924.06;107261;1276;22870;-78
2023/01/20 05:26:50;;;;;;;23.90;8.80;;;;;;;6.23;100.00;97916.07;110280;1275;22183;-77
2023/01/20 05:29:19;;;;;;;21.70;9.00;;;;;;;6.25;100.00;97925.48;108349;1278;22496;-77
2023/01/20 05:31:47;;;;;;;16.90;7.40;;;;;;;6.29;100.00;97914.02;107583;1277;25437;-77
2023/01/20 05:34:25;;;;;;;11.70;6.40;;;;;;;6.32;100.00;97908.27;107571;1278;23330;-77
2023/01/20 05:36:53;;;;;;;16.60;7.90;;;;;;;6.35;100.00;97900.62;107336;1277;25460;-76
2023/01/20 05:39:25;;;;;;;10.50;5.80;;;;;;;6.38;100.00;97890.20;107289;1278;25635;-77
2023/01/20 05:42:00;;;;;;;12.00;7.00;;;;;;;6.42;100.00;97884.23;107297;1278;22562;-76
2023/01/20 05:44:34;;;;;;;13.70;6.60;;;;;;;6.45;100.00;97884.31;107285;1272;24203;-77
2023/01/20 05:47:03;;;;;;;10.10;5.30;;;;;;;6.48;100.00;97877.19;107301;1269;22574;-77
2023/01/20 05:49:36;;;;;;;14.60;6.90;;;;;;;6.49;100.00;97869.59;107247;1275;25262;-77
2023/01/20 05:52:04;;;;;;;16.50;7.10;;;;;;;6.49;100.00;97869.08;107409;1277;22529;-77
2023/01/20 05:54:35;;;;;;;21.70;10.40;;;;;;;6.50;100.00;97879.38;107491;1278;23549;-79
2023/01/20 05:57:04;;;;;;;11.50;6.30;;;;;;;6.49;100.00;97884.56;107480;1278;23368;-77
2023/01/20 05:59:32;;;;;;;11.40;6.20;;;;;;;6.46;100.00;97887.92;107437;1278;22766;-77
2023/01/20 06:02:01;;;;;;;12.50;6.90;;;;;;;6.42;99.91;97886.98;107324;1277;23810;-77
2023/01/20 06:04:29;;;;;;;16.70;7.50;;;;;;;6.38;99.91;97883.83;107372;1278;22520;-77
2023/01/20 06:07:00;;;;;;;11.90;6.20;;;;;;;6.35;99.67;97892.69;107376;1278;22524;-77
2023/01/20 06:09:30;;;;;;;12.70;5.00;;;;;;;6.30;99.89;97902.29;107406;1270;22622;-77
2023/01/20 06:11:59;;;;;;;11.20;4.60;;;;;;;6.29;99.98;97903.04;107437;1270;22532;-77
2023/01/20 06:14:30;;;;;;;10.30;4.90;;;;;;;6.26;100.00;97901.38;107466;1278;22548;-76
2023/01/20 06:17:10;;;;;;;23.40;9.10;;;;;;;6.25;100.00;97898.12;107293;1277;22660;-77
2023/01/20 06:19:44;;;;;;;11.80;5.30;;;;;;;6.29;100.00;97902.51;107427;1277;23255;-76
2023/01/20 06:22:21;;;;;;;11.80;5.10;;;;;;;6.33;100.00;97896.02;107395;1277;24232;-78
2023/01/20 06:24:49;;;;;;;12.70;5.70;;;;;;;6.35;100.00;97887.00;107378;1270;22526;-76
2023/01/20 06:27:40;;;;;;;;;;;;;;;6.37;100.00;97890.89;107455;1277;22536;-76
2023/01/20 06:30:23;;;;;;;12.00;5.50;;;;;;;6.39;100.00;97885.36;107375;1277;23826;-77
2023/01/20 06:32:53;;;;;;;10.70;5.10;;;;;;;6.43;100.00;97888.69;107321;1278;25229;-78
2023/01/20 06:35:24;;;;;;;14.00;5.30;;;;;;;6.47;100.00;97891.50;107189;1278;22546;-77
2023/01/20 06:38:09;;;;;;;11.40;5.70;;;;;;;6.50;100.00;97881.80;107490;1270;22522;-78
2023/01/20 06:40:42;;;;;;;11.50;5.30;;;;;;;6.51;100.00;97876.92;107757;1273;22531;-76
2023/01/20 06:43:20;;;;;;;11.40;5.40;;;;;;;6.55;100.00;97879.05;107471;1274;22520;-77
2023/01/20 06:45:51;;;;;;;12.60;6.20;;;;;;;6.56;100.00;97878.33;107553;1277;25410;-76
2023/01/20 06:48:28;;;;;;;16.50;5.80;;;;;;;6.59;100.00;97878.78;107412;1277;24308;-77
2023/01/20 06:51:10;;;;;;;10.20;5.20;;;;;;;6.61;100.00;97876.48;107363;1278;25536;-76
2023/01/20 06:53:44;;;;;;;11.20;5.50;;;;;;;6.63;100.00;97878.48;107381;1278;22683;-76
2023/01/20 06:56:19;;;;;;;13.30;5.30;;;;;;;6.65;100.00;97876.21;107701;1257;25275;-76
2023/01/20 06:58:51;;;;;;;12.40;5.30;;;;;;;6.62;100.00;97879.73;107951;1277;24266;-75
2023/01/20 07:01:25;;;;;;;11.70;5.90;;;;;;;6.65;100.00;97890.66;107474;1274;22529;-76
2023/01/20 07:04:01;;;;;;;10.80;5.50;;;;;;;6.70;100.00;97894.83;107379;1262;24228;-75
2023/01/20 07:06:37;;;;;;;13.30;6.20;;;;;;;6.71;100.00;97892.55;107337;1277;22643;-75
2023/01/20 07:09:12;;;;;;;10.20;5.60;;;;;;;6.72;100.00;97898.37;108721;1266;23625;-78
2023/01/20 07:11:48;;;;;;;19.70;6.50;;;;;;;6.76;100.00;97906.37;107518;1277;22522;-77
2023/01/20 07:14:16;;;;;;;13.50;6.20;;;;;;;6.75;100.00;97911.89;107467;1278;25220;-77
2023/01/20 07:16:47;;;;;;;13.40;5.90;;;;;;;6.77;100.00;97918.04;107429;1277;22759;-77
2023/01/20 07:19:16;;;;;;;14.70;6.70;;;;;;;6.78;100.00;97913.88;107188;1278;22719;-77
2023/01/20 07:21:44;;;;;;;14.30;7.50;;;;;;;6.81;100.00;97910.35;107363;1277;24164;-78
2023/01/20 07:24:23;;;;;;;17.70;8.20;;;;;;;6.85;100.00;97919.89;107525;1278;23410;-78
2023/01/20 07:26:55;;;;;;;20.50;9.50;;;;;;;6.89;100.00;97914.77;108338;1277;22558;-77
2023/01/20 07:29:25;;;;;;;16.10;7.80;;;;;;;6.93;100.00;97908.63;108340;1276;25414;-78
2023/01/20 07:32:00;;;;;;;17.90;7.10;;;;;;;7.00;100.00;97908.77;107590;1270;22555;-77
2023/01/20 07:35:12;;;;;;;15.00;7.70;;;;;;;7.10;100.00;97901.58;109104;1270;22568;-76
2023/01/20 07:38:00;;;;;;;14.20;6.60;;;;;;;7.26;100.00;97906.23;107476;1272;22546;-76
2023/01/20 07:40:31;;;;;;;13.60;6.20;;;;;;;7.35;100.00;97908.71;107260;1278;22549;-77
2023/01/20 07:43:02;;;;;;;14.40;6.60;;;;;;;7.49;100.00;97903.64;107459;1277;25220;-76
2023/01/20 07:45:31;;;;;;;12.30;6.00;;;;;;;7.61;100.00;97892.75;107484;1269;22632;-79
2023/01/20 07:48:06;;;;;;;11.60;5.40;;;;;;;7.69;99.69;97891.28;107497;1278;22563;-76
2023/01/20 07:50:37;;;;;;;11.20;5.30;;;;;;;7.80;99.42;97904.89;107512;1270;22639;-76
2023/01/20 07:53:06;;;;;;;11.70;6.10;;;;;;;7.91;98.91;97903.84;107467;1266;24347;-76
2023/01/20 07:55:34;;;;;;;12.00;5.80;;;;;;;8.01;99.03;97908.15;107209;1277;22571;-77
2023/01/20 07:58:54;;;;;;;11.90;6.70;;;;;;;8.08;98.06;97907.59;107607;1277;24223;-78
2023/01/20 08:01:52;;;;;;;20.50;7.00;;;;;;;8.09;97.72;97903.22;108266;1269;23370;-77
2023/01/20 08:04:23;;;;;;;13.70;6.90;;;;;;;8.11;97.23;97899.70;107599;1277;22544;-77
2023/01/20 08:06:51;;;;;;;15.90;7.50;;;;;;;8.10;96.88;97887.48;107382;1277;22739;-77
2023/01/20 08:09:19;;;;;;;16.90;8.10;;;;;;;8.09;96.76;97880.77;107499;1270;25424;-76
2023/01/20 08:11:51;;;;;;;12.00;6.20;;;;;;;8.12;96.77;97883.27;107695;1277;22922;-78
2023/01/20 08:14:19;;;;;;;15.70;6.70;;;;;;;8.14;96.47;97887.54;107542;1277;25232;-77
2023/01/20 08:16:54;;;;;;;15.70;6.10;;;;;;;8.13;96.28;97887.02;107652;1270;22530;-77
2023/01/20 08:19:25;;;;;;;13.00;5.90;;;;;;;8.15;96.06;97888.35;107751;1277;22524;-78
2023/01/20 08:21:56;;;;;;;13.30;6.10;;;;;;;8.20;96.34;97892.32;107569;1273;25585;-77
2023/01/20 08:24:25;;;;;;;12.80;6.00;;;;;;;8.21;96.05;97878.31;107675;1273;22955;-76
2023/01/20 08:26:56;;;;;;;16.30;7.00;;;;;;;8.22;96.41;97875.35;107402;1277;22573;-75
2023/01/20 08:29:27;;;;;;;21.40;7.70;;;;;;;8.23;96.64;97882.92;107377;1278;22526;-77
2023/01/20 08:31:58;;;;;;;18.00;7.80;;;;;;;8.25;96.41;97876.13;107472;1275;23023;-77
2023/01/20 08:34:29;;;;;;;18.00;7.50;;;;;;;8.29;96.51;97879.40;107371;1256;25232;-77
2023/01/20 08:37:15;;;;;;;17.80;8.60;;;;;;;8.33;96.37;97879.82;107608;1276;23798;-77
2023/01/20 08:39:44;;;;;;;19.20;8.00;;;;;;;8.33;95.88;97882.02;107395;1260;22521;-77
2023/01/20 08:42:15;;;;;;;15.10;7.40;;;;;;;8.30;95.75;97885.94;107607;1260;22523;-77
2023/01/20 08:44:54;;;;;;;16.00;7.40;;;;;;;8.32;95.49;97890.55;107573;1275;22545;-77
2023/01/20 08:47:25;;;;;;;15.50;7.20;;;;;;;8.31;95.39;97896.27;107515;1277;25233;-76
2023/01/20 08:49:54;;;;;;;19.30;8.00;;;;;;;8.28;95.35;97892.41;107497;1278;22681;-77
2023/01/20 08:52:22;;;;;;;19.90;7.90;;;;;;;8.27;95.18;97887.08;107603;1278;25462;-77
2023/01/20 08:54:52;;;;;;;11.20;5.90;;;;;;;8.26;95.40;97883.84;107620;1266;22621;-77
2023/01/20 08:57:25;;;;;;;15.70;7.20;;;;;;;8.25;95.51;97882.67;110082;1277;22190;-77
2023/01/20 08:59:56;;;;;;;9.80;5.40;;;;;;;8.27;95.65;97882.27;110311;1277;22368;-77
2023/01/20 09:02:28;;;;;;;12.50;5.40;;;;;;;8.30;95.89;97883.70;110074;1277;22586;-76
2023/01/20 09:04:59;;;;;;;9.20;4.90;;;;;;;8.35;96.09;97886.46;110267;1278;22364;-77
2023/01/20 09:07:30;;;;;;;10.10;5.00;;;;;;;8.42;96.08;97883.81;110263;1276;22195;-77
2023/01/20 09:09:58;;;;;;;12.40;5.00;;;;;;;8.50;96.05;97879.73;110245;1275;22209;-77
2023/01/20 09:12:30;;;;;;;10.30;5.50;;;;;;;8.53;95.68;97881.52;110254;1278;23220;-77
2023/01/20 09:14:58;;;;;;;14.70;6.40;;;;;;;8.58;95.79;97877.90;110230;1275;22292;-77
2023/01/20 09:17:26;;;;;;;12.40;6.00;;;;;;;8.62;95.79;97864.96;110228;1277;22408;-77
2023/01/20 09:19:59;;;;;;;10.80;5.50;;;;;;;8.66;95.20;97858.58;110232;1275;22329;-77
2023/01/20 09:22:33;;;;;;;15.30;5.90;;;;;;;8.70;95.08;97846.70;110236;1277;22308;-78
2023/01/20 09:25:06;;;;;;;11.10;5.50;;;;;;;8.74;95.07;97841.21;110066;1278;22324;-77
2023/01/20 09:27:36;;;;;;;12.80;5.80;;;;;;;8.77;95.09;97836.59;110214;1277;22343;-77
2023/01/20 09:30:05;;;;;;;12.10;5.40;;;;;;;8.76;94.46;97832.80;110297;1277;22895;-77
2023/01/20 09:32:36;;;;;;;9.20;5.20;;;;;;;8.77;94.29;97828.80;110133;1278;22437;-78
2023/01/20 09:35:05;;;;;;;11.80;5.30;;;;;;;8.79;94.32;97824.58;109924;1278;22582;-77
2023/01/20 09:44:05;;;;;;;12.70;5.60;;;;;;;8.84;94.35;97828.40;108223;1277;22542;-78
2023/01/20 09:47:18;;;;;;;11.50;5.10;;;;;;;8.87;94.42;97832.06;107538;1278;22606;-78
2023/01/20 09:56:18;;;;;;;11.80;6.10;;;;;;;8.92;94.36;97844.98;107705;1277;22527;-77
2023/01/20 09:59:20;;;;;;;14.70;7.90;;;;;;;9.01;95.10;97846.05;107495;1285;27591;-76
2023/01/20 10:02:02;;;;;;;9.20;4.60;;;;;;;9.08;94.48;97835.08;107074;1285;22530;-77
2023/01/20 10:04:37;;;;;;;10.20;4.70;;;;;;;9.11;94.48;97827.01;110017;1278;22175;-77
2023/01/20 10:07:22;;;;;;;11.50;5.30;;;;;;;9.08;94.34;97818.64;110234;1276;22355;-77
2023/01/20 10:09:59;;;;;;;9.50;4.60;;;;;;;9.05;93.70;97806.65;110150;1277;23104;-77
2023/01/20 10:12:46;;;;;;;10.10;4.60;;;;;;;9.03;93.82;97797.42;110311;1276;22395;-78
2023/01/20 10:15:47;;;;;;;9.20;5.00;;;;;;;8.96;93.50;97791.30;109248;1275;22548;-77
2023/01/20 10:18:24;;;;;;;11.30;5.20;;;;;;;8.89;93.31;97785.52;107886;1270;22626;-77
2023/01/20 10:21:29;;;;;;;8.40;4.50;;;;;;;8.82;93.07;97778.54;107459;1278;24243;-77
2023/01/20 10:24:13;;;;;;;10.70;4.90;;;;;;;8.78;93.32;97769.70;107529;1278;22595;-78
2023/01/20 10:26:53;;;;;;;13.00;5.10;;;;;;;8.74;93.22;97774.00;107426;1270;25567;-77
2023/01/20 10:30:06;;;;;;;7.30;4.30;;;;;;;8.72;93.21;97770.80;107487;1277;25345;-77
2023/01/20 10:32:56;;;;;;;6.90;3.80;;;;;;;8.65;93.70;97767.77;108561;1277;22235;-78
2023/01/20 10:35:35;;;;;;;8.40;4.30;;;;;;;8.63;93.80;97772.18;110048;1273;23301;-78
2023/01/20 10:38:23;;;;;;;9.20;4.10;;;;;;;8.61;93.78;97766.21;107647;1277;23329;-77
2023/01/20 10:41:05;;;;;;;7.80;3.90;;;;;;;8.60;93.98;97758.48;107480;1270;25227;-78
2023/01/20 10:43:41;;;;;;;10.90;4.60;;;;;;;8.61;94.06;97748.94;107525;1277;22749;-81
2023/01/20 10:46:51;;;;;;;8.00;4.10;;;;;;;8.64;94.38;97745.71;107531;1277;23656;-77
2023/01/20 10:50:12;;;;;;;11.40;5.40;;;;;;;8.69;94.31;97744.14;107335;1271;23431;-77
2023/01/20 10:53:08;;;;;;;8.30;3.80;;;;;;;8.68;94.12;97749.89;107551;1277;22530;-78
2023/01/20 10:55:58;;;;;;;9.70;5.00;;;;;;;8.70;94.02;97756.71;107566;1277;22547;-77
2023/01/20 10:58:46;;;;;;;10.00;4.20;;;;;;;8.74;94.06;97766.73;107412;1278;23956;-77
2023/01/20 11:01:23;;;;;;;11.50;4.20;;;;;;;8.74;94.06;97767.77;107519;1277;22542;-77
2023/01/20 11:04:03;;;;;;;10.80;5.10;;;;;;;8.72;93.50;97759.04;107473;1268;22532;-77
2023/01/20 11:06:34;;;;;;;7.80;4.40;;;;;;;8.78;93.62;97750.18;107592;1278;22531;-77
2023/01/20 11:09:26;;;;;;;8.50;5.10;;;;;;;8.80;93.33;97742.51;107565;1278;22690;-77
2023/01/20 11:11:56;;;;;;;9.60;4.90;;;;;;;8.80;92.84;97737.50;107789;1276;22533;-77
2023/01/20 11:14:25;;;;;;;13.10;5.60;;;;;;;8.78;93.05;97730.31;107305;1274;25434;-78
2023/01/20 11:17:03;;;;;;;10.40;5.70;;;;;;;8.79;92.93;97717.85;107335;1279;22739;-77
2023/01/20 11:19:55;;;;;;;10.00;4.90;;;;;;;8.75;92.94;97709.01;107284;1273;24218;-77
2023/01/20 11:22:34;;;;;;;14.30;4.40;;;;;;;8.74;92.84;97707.16;107334;1279;22553;-77
2023/01/20 11:25:24;;;;;;;8.90;3.40;;;;;;;8.74;92.88;97706.61;107223;1276;23490;-78
2023/01/20 11:27:53;;;;;;;7.90;4.30;;;;;;;8.75;92.84;97715.92;107406;1273;24270;-77
2023/01/20 11:30:32;;;;;;;7.00;3.60;;;;;;;8.75;93.13;97722.67;108349;1267;22523;-77
2023/01/20 11:33:22;;;;;;;8.30;3.90;;;;;;;8.77;93.27;97725.68;109133;1272;22370;-78
2023/01/20 11:36:01;;;;;;;9.60;4.20;;;;;;;8.82;93.56;97724.14;107553;1273;22539;-77
2023/01/20 11:38:53;;;;;;;16.00;5.90;;;;;;;8.86;93.45;97728.44;107485;1279;22656;-77
2023/01/20 11:41:32;;;;;;;13.30;3.90;;;;;;;8.88;92.83;97731.13;107303;1280;25596;-78
2023/01/20 11:44:05;;;;;;;14.40;7.20;;;;;;;8.92;92.54;97730.64;109211;1279;26572;-78
2023/01/20 11:46:36;;;;;;;12.90;4.40;;;;;;;8.91;92.12;97727.90;107581;1279;22535;-78
2023/01/20 11:49:18;;;;;;;13.90;8.00;;;;;;;8.91;92.05;97726.48;107451;1279;24097;-77
2023/01/20 11:52:03;;;;;;;8.80;4.40;;;;;;;8.93;91.90;97719.49;107422;1278;22908;-78
2023/01/20 11:54:35;;;;;;;12.70;4.60;;;;;;;8.91;92.00;97723.04;107462;1273;24349;-77
2023/01/20 11:57:06;;;;;;;10.00;4.40;;;;;;;8.92;91.95;97719.73;107373;1261;22664;-77
2023/01/20 11:59:48;;;;;;;19.10;7.90;;;;;;;8.92;91.80;97717.84;107273;1279;22915;-78
2023/01/20 12:02:22;;;;;;;13.80;5.60;;;;;;;8.90;91.62;97710.65;107531;1275;22553;-78
2023/01/20 12:05:19;;;;;;;19.60;8.90;;;;;;;8.89;91.15;97705.15;107660;1276;25819;-78
2023/01/20 12:07:51;;;;;;;18.60;8.90;;;;;;;8.87;91.45;97699.91;107740;1273;23802;-77
2023/01/20 12:10:24;;;;;;;17.80;8.40;;;;;;;8.87;91.50;97700.59;107636;1278;22547;-77
2023/01/20 12:13:16;;;;;;;9.90;6.20;;;;;;;8.87;91.27;97687.27;107663;1277;22517;-77
2023/01/20 12:15:53;;;;;;;30.20;9.70;;;;;;;8.90;91.43;97680.92;107603;1270;26125;-77
2023/01/20 12:18:46;;;;;;;35.70;18.40;;;;;;;8.92;91.49;97688.96;110190;1270;22338;-78